Time;durP1;ratioP1;P1;durP2;ratioP2;P2;SDS_P1;SDS_P2;PMS_P1;PMS_P2;Temp;Humidity;BMP_temperature;BMP_pressure;BME280_temperature;BME280_humidity;BME280_pressure;Samples;Min_cycle;Max_cycle;Signal;HPM_P1;HPM_P2
2022/12/28 00:01:42;;;;;;;21.23;11.45;;;;;;;1.71;67.04;100509.25;10383389;28;20065;-61
2022/12/28 00:06:46;;;;;;;24.92;12.60;;;;;;;1.66;66.59;100499.88;10380082;28;21025;-61
2022/12/28 00:11:47;;;;;;;32.85;12.88;;;;;;;1.39;66.79;100488.25;10381376;28;20401;-60
2022/12/28 00:16:49;;;;;;;21.70;11.60;;;;;;;1.38;67.24;100479.66;10376358;28;20072;-60
2022/12/28 00:21:53;;;;;;;23.23;11.80;;;;;;;1.54;67.15;100463.97;10383005;28;20061;-61
2022/12/28 00:26:55;;;;;;;18.35;10.50;;;;;;;1.77;66.82;100436.97;10382765;28;20041;-61
2022/12/28 00:31:57;;;;;;;20.77;11.25;;;;;;;1.86;66.51;100418.78;10384262;28;20084;-61
2022/12/28 00:36:59;;;;;;;23.15;11.98;;;;;;;1.58;66.68;100417.53;10379859;28;20405;-61
2022/12/28 00:42:13;;;;;;;22.20;12.77;;;;;;;1.26;67.36;100405.09;10383078;28;20053;-61
2022/12/28 00:47:15;;;;;;;22.23;11.88;;;;;;;1.42;67.67;100404.88;10381883;28;20068;-60
2022/12/28 00:52:16;;;;;;;26.02;12.60;;;;;;;1.68;67.27;100384.69;10381945;28;20053;-61
2022/12/28 00:57:18;;;;;;;23.95;14.50;;;;;;;1.77;66.93;100372.50;10381341;28;20049;-61
2022/12/28 01:02:20;;;;;;;26.40;15.70;;;;;;;1.73;66.91;100365.69;10382768;28;20425;-61
2022/12/28 01:07:21;;;;;;;25.00;14.98;;;;;;;1.69;66.75;100364.03;10381958;28;20057;-61
2022/12/28 01:12:23;;;;;;;27.35;14.43;;;;;;;1.81;66.80;100358.69;10374614;28;20401;-62
2022/12/28 01:17:25;;;;;;;26.10;15.38;;;;;;;1.89;66.80;100366.31;10356783;28;20461;-61
2022/12/28 01:22:27;;;;;;;25.20;15.77;;;;;;;1.99;66.75;100352.34;10377745;28;20050;-61
2022/12/28 01:27:29;;;;;;;28.25;14.50;;;;;;;2.01;66.79;100358.34;10386956;28;20416;-61
2022/12/28 01:32:30;;;;;;;21.13;11.88;;;;;;;2.06;66.74;100356.50;10382164;28;20317;-62
2022/12/28 01:37:34;;;;;;;22.90;12.10;;;;;;;2.15;66.44;100359.75;10385806;28;20421;-61
2022/12/28 01:42:38;;;;;;;21.23;11.30;;;;;;;2.05;66.59;100359.97;10382810;28;20128;-61
2022/12/28 01:47:40;;;;;;;21.02;12.55;;;;;;;1.88;66.92;100362.88;10381365;28;20765;-61
2022/12/28 01:52:54;;;;;;;20.55;12.70;;;;;;;2.02;67.28;100358.31;10382957;28;20046;-61
2022/12/28 01:58:10;;;;;;;18.77;11.57;;;;;;;2.17;67.06;100364.91;10382052;28;20054;-61
2022/12/28 02:03:24;;;;;;;25.48;13.98;;;;;;;2.25;66.63;100344.13;10362589;28;20049;-61
2022/12/28 02:08:40;;;;;;;17.38;11.75;;;;;;;2.27;66.41;100327.72;10383157;28;20107;-61
2022/12/28 02:13:43;;;;;;;21.63;12.25;;;;;;;2.33;66.27;100319.00;10383465;28;20045;-61
2022/12/28 02:18:47;;;;;;;20.27;12.68;;;;;;;2.32;66.34;100302.66;10385095;28;20076;-61
2022/12/28 02:24:19;;;;;;;20.83;12.02;;;;;;;2.16;66.56;100286.66;10381008;28;20133;-61
2022/12/28 02:29:45;;;;;;;25.05;12.73;;;;;;;2.02;67.05;100267.16;10382369;28;20046;-61
2022/12/28 02:34:52;;;;;;;21.65;11.43;;;;;;;1.98;67.59;100266.38;10383750;28;20080;-61
2022/12/28 02:40:12;;;;;;;20.63;10.30;;;;;;;2.03;67.98;100268.88;10378573;28;20056;-61
2022/12/28 02:51:44;;;;;;;20.90;10.13;;;;;;;2.08;68.19;100246.41;10381575;28;20041;-61
2022/12/28 02:56:59;;;;;;;19.58;10.07;;;;;;;2.24;68.08;100263.25;10334895;28;20053;-61
2022/12/28 03:02:22;;;;;;;16.02;10.00;;;;;;;2.42;67.65;100260.28;10375148;28;20293;-61
2022/12/28 03:13:03;;;;;;;20.58;11.15;;;;;;;2.65;67.18;100227.09;10392913;28;20059;-61
2022/12/28 03:34:22;;;;;;;21.67;11.13;;;;;;;2.84;67.12;100175.84;10391523;28;20556;-61
2022/12/28 03:39:39;;;;;;;22.17;10.60;;;;;;;2.85;67.15;100169.78;10392238;28;20049;-61
2022/12/28 03:44:51;;;;;;;15.23;8.10;;;;;;;2.76;67.63;100157.97;10390871;28;20050;-61
2022/12/28 03:49:53;;;;;;;20.00;10.02;;;;;;;2.83;67.69;100153.47;10392068;28;20045;-61
2022/12/28 03:54:54;;;;;;;21.42;10.13;;;;;;;2.90;67.60;100149.88;10390304;28;20054;-61
2022/12/28 03:59:56;;;;;;;16.50;8.88;;;;;;;2.85;67.81;100141.38;10390009;28;20410;-61
2022/12/28 04:04:58;;;;;;;15.85;8.50;;;;;;;2.88;67.83;100131.84;10386031;28;20045;-62
2022/12/28 04:09:59;;;;;;;15.75;8.88;;;;;;;2.88;68.47;100129.25;10382910;28;20457;-61
2022/12/28 04:15:01;;;;;;;13.95;8.23;;;;;;;3.03;68.30;100127.97;10382877;28;20045;-61
2022/12/28 04:20:03;;;;;;;14.52;8.38;;;;;;;3.23;68.30;100117.13;10383088;28;20054;-61
2022/12/28 04:25:05;;;;;;;14.60;8.10;;;;;;;3.20;68.32;100114.63;10384675;28;20045;-61
2022/12/28 04:30:08;;;;;;;13.50;7.95;;;;;;;3.33;68.39;100116.00;10385189;28;20048;-61
2022/12/28 04:35:09;;;;;;;12.40;7.75;;;;;;;3.42;68.46;100108.81;10384123;28;20409;-61
2022/12/28 04:40:11;;;;;;;13.77;7.43;;;;;;;3.54;68.47;100095.53;10381918;28;20049;-61
2022/12/28 04:45:13;;;;;;;11.90;7.22;;;;;;;3.74;68.45;100092.41;10383195;28;20402;-61
2022/12/28 04:50:22;;;;;;;11.75;7.43;;;;;;;3.78;68.23;100086.25;10383608;28;20071;-61
2022/12/28 04:55:24;;;;;;;10.75;6.57;;;;;;;4.00;68.59;100076.97;10385151;28;20056;-61
2022/12/28 05:00:33;;;;;;;11.77;6.93;;;;;;;4.36;68.22;100064.59;10388795;28;20088;-61
2022/12/28 05:05:35;;;;;;;10.30;7.15;;;;;;;4.55;68.12;100058.78;10390681;28;20471;-61
2022/12/28 05:10:37;;;;;;;11.98;7.10;;;;;;;4.71;68.18;100053.94;10390248;28;20080;-61
2022/12/28 05:15:39;;;;;;;11.35;6.22;;;;;;;4.79;68.43;100044.16;10391596;28;20056;-62
2022/12/28 05:20:40;;;;;;;12.27;6.53;;;;;;;4.94;68.91;100037.59;10390953;28;20052;-61
2022/12/28 05:25:42;;;;;;;9.40;6.18;;;;;;;5.10;68.92;100025.78;10390244;28;20049;-60
2022/12/28 05:30:43;;;;;;;15.30;6.50;;;;;;;5.26;68.59;100027.75;10390032;28;20041;-60
2022/12/28 05:35:45;;;;;;;10.18;5.63;;;;;;;5.35;68.60;100018.81;10389062;28;20053;-60
2022/12/28 05:40:47;;;;;;;9.70;4.65;;;;;;;5.43;68.56;100020.19;10389413;28;20219;-60
2022/12/28 05:45:48;;;;;;;8.43;4.80;;;;;;;5.51;68.60;100010.38;10388295;28;20084;-60
2022/12/28 05:50:50;;;;;;;12.73;4.97;;;;;;;5.54;68.59;100017.19;10390843;28;20045;-60
2022/12/28 05:56:06;;;;;;;6.30;4.20;;;;;;;5.61;68.61;100010.88;10388318;28;20520;-60
2022/12/28 06:01:19;;;;;;;5.75;3.13;;;;;;;5.67;68.63;100007.19;10375834;28;20293;-60
2022/12/28 06:06:22;;;;;;;9.38;4.07;;;;;;;5.84;68.26;99992.66;10387259;28;20056;-60
2022/12/28 06:11:25;;;;;;;10.05;3.80;;;;;;;5.94;67.96;99993.16;10388449;28;20045;-60
2022/12/28 06:16:29;;;;;;;11.65;3.60;;;;;;;6.04;67.88;99984.91;10387109;28;20056;-60
2022/12/28 06:21:33;;;;;;;7.47;3.10;;;;;;;6.14;67.67;99982.81;10388952;28;20136;-60
2022/12/28 06:26:37;;;;;;;5.80;2.38;;;;;;;6.21;67.40;99972.09;10388430;28;20077;-60
2022/12/28 06:31:45;;;;;;;7.65;3.10;;;;;;;6.31;67.34;99977.78;10387824;28;20128;-60
2022/12/28 06:36:49;;;;;;;4.45;2.30;;;;;;;6.37;67.02;99966.31;10387295;28;20053;-61
2022/12/28 06:41:51;;;;;;;6.63;2.40;;;;;;;6.41;66.97;99953.09;10387680;28;20053;-60
2022/12/28 06:46:53;;;;;;;6.22;2.08;;;;;;;6.47;66.69;99958.03;10386696;28;20053;-60
2022/12/28 06:51:54;;;;;;;7.57;2.35;;;;;;;6.52;66.53;99956.09;10380797;28;20049;-60
2022/12/28 06:56:56;;;;;;;5.90;2.00;;;;;;;6.60;66.33;99953.16;10387443;28;20057;-60
2022/12/28 07:01:57;;;;;;;4.85;2.00;;;;;;;6.65;66.16;99944.28;10386106;28;20401;-61
2022/12/28 07:06:59;;;;;;;5.25;1.90;;;;;;;6.71;66.02;99945.75;10384505;28;20048;-60
2022/12/28 07:12:01;;;;;;;4.20;1.65;;;;;;;6.68;65.80;99938.09;10385079;28;20525;-60
2022/12/28 07:17:03;;;;;;;6.82;2.00;;;;;;;6.74;65.65;99940.41;10385672;28;20076;-60
2022/12/28 07:22:04;;;;;;;4.47;1.70;;;;;;;6.83;65.31;99937.44;10371929;28;20045;-62
2022/12/28 07:27:06;;;;;;;5.90;1.90;;;;;;;6.87;65.04;99936.38;10386194;28;20045;-61
2022/12/28 07:32:08;;;;;;;7.00;1.60;;;;;;;6.92;64.93;99939.59;10385231;28;20053;-60
2022/12/28 07:37:09;;;;;;;4.68;1.70;;;;;;;6.96;64.86;99934.19;10375344;28;20049;-61
2022/12/28 07:42:11;;;;;;;6.47;1.80;;;;;;;7.04;64.67;99926.06;10381155;28;20691;-60
2022/12/28 07:47:14;;;;;;;5.65;1.70;;;;;;;7.03;64.44;99916.56;10379801;28;20056;-61
2022/12/28 07:52:15;;;;;;;4.18;1.70;;;;;;;7.06;64.19;99922.47;10382888;28;20057;-61
2022/12/28 07:57:17;;;;;;;5.00;1.60;;;;;;;7.05;64.25;99918.19;10374053;28;20061;-60
2022/12/28 08:02:19;;;;;;;5.35;1.85;;;;;;;7.14;63.92;99916.94;10371680;28;20552;-60
2022/12/28 08:07:20;;;;;;;6.35;1.73;;;;;;;7.24;63.74;99910.41;10376999;28;20134;-61
2022/12/28 08:12:22;;;;;;;3.85;1.83;;;;;;;7.27;63.53;99904.19;10381749;28;20053;-61
2022/12/28 08:17:24;;;;;;;5.53;1.70;;;;;;;7.28;63.35;99909.34;10381181;28;20053;-61
2022/12/28 08:22:26;;;;;;;3.85;1.65;;;;;;;7.41;63.10;99901.78;10383272;28;20183;-61
2022/12/28 08:27:28;;;;;;;8.13;1.70;;;;;;;7.46;62.76;99905.03;10380273;28;20045;-61
2022/12/28 08:32:37;;;;;;;6.50;1.77;;;;;;;7.55;62.59;99912.41;10382340;28;20073;-61
2022/12/28 08:37:38;;;;;;;4.90;1.60;;;;;;;7.76;62.19;99916.56;10380534;28;20064;-61
2022/12/28 08:42:40;;;;;;;6.57;1.50;;;;;;;7.83;61.64;99905.75;10381376;28;20497;-61
2022/12/28 08:47:41;;;;;;;5.45;1.65;;;;;;;7.91;61.49;99903.66;10374222;28;20068;-60
2022/12/28 08:52:43;;;;;;;5.20;1.80;;;;;;;8.05;61.17;99913.38;10380755;28;20053;-61
2022/12/28 08:57:45;;;;;;;4.65;1.42;;;;;;;8.29;60.50;99899.16;10378092;28;20409;-61
2022/12/28 09:02:47;;;;;;;6.10;1.80;;;;;;;8.28;60.05;99902.66;10378745;28;20064;-60
2022/12/28 09:07:50;;;;;;;5.50;1.90;;;;;;;8.47;59.66;99908.63;10378196;28;20143;-61
2022/12/28 09:12:59;;;;;;;4.05;1.67;;;;;;;8.49;59.45;99898.13;10375186;28;20506;-60
2022/12/28 09:18:01;;;;;;;5.13;1.80;;;;;;;8.85;58.77;99894.44;10379262;28;20056;-60
2022/12/28 09:23:03;;;;;;;3.75;1.60;;;;;;;8.88;58.19;99893.44;10380746;28;20053;-60
2022/12/28 09:28:04;;;;;;;6.07;1.90;;;;;;;9.00;58.03;99897.97;10379023;28;20045;-60
2022/12/28 09:38:26;;;;;;;4.20;1.63;;;;;;;8.67;57.75;99892.78;10379756;28;20080;-60
2022/12/28 09:43:28;;;;;;;3.70;1.38;;;;;;;9.12;57.48;99891.25;10380997;28;20050;-60
2022/12/28 09:48:30;;;;;;;6.22;1.75;;;;;;;9.08;57.44;99885.38;10386709;28;20045;-60
2022/12/28 09:53:34;;;;;;;4.47;1.60;;;;;;;9.29;57.18;99884.22;10385844;28;20049;-60
2022/12/28 09:58:38;;;;;;;5.53;1.88;;;;;;;9.25;57.00;99887.06;10386347;28;20210;-60
2022/12/28 10:03:46;;;;;;;3.33;1.70;;;;;;;9.31;57.16;99879.75;10384851;28;20081;-60
2022/12/28 10:08:50;;;;;;;4.70;1.73;;;;;;;9.36;56.62;99888.16;10387673;28;20049;-60
2022/12/28 10:13:57;;;;;;;6.05;1.90;;;;;;;9.30;56.54;99885.88;10381983;28;20049;-60
2022/12/28 10:18:59;;;;;;;5.43;1.67;;;;;;;9.28;56.83;99886.91;10386682;28;20049;-61
2022/12/28 10:24:06;;;;;;;5.00;2.42;;;;;;;9.37;56.37;99876.78;10384148;28;21036;-60
2022/12/28 10:29:31;;;;;;;4.60;2.00;;;;;;;9.46;56.41;99870.22;10386989;28;20054;-60
2022/12/28 10:34:34;;;;;;;3.72;1.35;;;;;;;9.62;55.83;99851.00;10384455;28;20489;-60
2022/12/28 10:39:36;;;;;;;4.00;1.60;;;;;;;9.91;55.61;99843.28;10384298;28;20050;-60
2022/12/28 10:44:38;;;;;;;3.78;1.52;;;;;;;9.81;55.38;99848.19;10383066;28;20054;-61
2022/12/28 10:49:49;;;;;;;6.13;2.00;;;;;;;9.51;55.26;99840.31;10382787;28;20073;-61
2022/12/28 10:55:32;;;;;;;6.43;1.80;;;;;;;9.47;54.92;99846.63;10384028;28;20053;-61
2022/12/28 11:00:34;;;;;;;6.32;1.60;;;;;;;9.65;55.44;99839.50;10384150;28;20061;-60
2022/12/28 11:05:36;;;;;;;4.28;1.42;;;;;;;9.75;55.06;99832.88;10381904;28;20215;-61
2022/12/28 11:10:39;;;;;;;5.47;1.80;;;;;;;9.81;54.69;99826.47;10370429;28;20041;-60
2022/12/28 11:15:43;;;;;;;6.20;1.90;;;;;;;9.56;54.37;99817.38;10378479;28;20053;-61
2022/12/28 11:20:53;;;;;;;6.15;2.03;;;;;;;9.84;54.23;99818.44;10376355;28;20512;-60
2022/12/28 11:25:55;;;;;;;7.78;2.70;;;;;;;9.99;53.87;99812.31;10379128;28;20056;-61
2022/12/28 11:30:57;;;;;;;6.70;2.30;;;;;;;10.06;53.29;99805.78;10383933;28;20500;-60
2022/12/28 11:36:00;;;;;;;6.18;2.00;;;;;;;10.05;53.34;99780.59;10379220;28;20107;-61
2022/12/28 11:41:11;;;;;;;8.32;2.83;;;;;;;9.89;53.70;99779.84;10381762;28;20068;-61
2022/12/28 11:46:22;;;;;;;5.30;2.30;;;;;;;10.03;53.17;99772.88;10379513;28;20060;-61
2022/12/28 11:51:32;;;;;;;3.58;1.45;;;;;;;10.11;53.14;99765.41;10380140;28;20687;-61
2022/12/28 11:56:43;;;;;;;3.90;1.60;;;;;;;10.17;52.98;99759.81;10377799;28;21360;-60
2022/12/28 12:01:45;;;;;;;6.05;2.30;;;;;;;10.39;53.06;99749.72;10373521;28;20174;-58
2022/12/28 12:06:47;;;;;;;7.05;2.10;;;;;;;10.39;52.63;99754.09;10377794;28;20112;-58
2022/12/28 12:11:59;;;;;;;5.57;2.03;;;;;;;10.37;52.71;99751.59;10380807;28;20078;-58
2022/12/28 12:17:05;;;;;;;6.40;1.55;;;;;;;10.21;52.65;99756.06;10378175;28;20045;-61
2022/12/28 12:22:20;;;;;;;4.60;1.55;;;;;;;10.02;52.35;99750.28;10381163;28;20057;-61
2022/12/28 12:27:37;;;;;;;4.93;2.13;;;;;;;9.87;53.38;99748.56;10378982;28;20053;-61
2022/12/28 12:32:47;;;;;;;6.90;2.85;;;;;;;9.70;54.02;99748.75;10382068;28;20045;-58
2022/12/28 12:37:48;;;;;;;6.00;1.83;;;;;;;9.60;54.69;99743.19;10378442;28;20041;-58
2022/12/28 12:43:05;;;;;;;5.93;2.53;;;;;;;9.42;55.76;99739.03;10381346;28;20569;-58
2022/12/28 12:48:28;;;;;;;3.75;1.77;;;;;;;9.45;56.17;99723.19;10377434;28;20056;-58
2022/12/28 12:53:46;;;;;;;5.22;1.77;;;;;;;9.32;56.68;99730.03;10374657;28;20053;-58
2022/12/28 12:59:11;;;;;;;4.88;1.70;;;;;;;9.25;56.66;99720.91;10377317;28;20099;-58
2022/12/28 13:04:21;;;;;;;4.53;1.60;;;;;;;9.27;56.45;99719.03;10374370;28;20517;-58
2022/12/28 13:09:26;;;;;;;4.00;1.58;;;;;;;9.22;56.84;99712.44;10378981;28;20053;-59
2022/12/28 13:14:29;;;;;;;5.10;1.40;;;;;;;9.19;56.65;99700.38;10376577;28;20068;-59
2022/12/28 13:19:32;;;;;;;3.40;1.60;;;;;;;9.29;56.80;99696.31;10385218;28;20115;-61
2022/12/28 13:24:37;;;;;;;4.93;1.67;;;;;;;9.37;56.47;99683.66;10382315;28;20041;-61
2022/12/28 13:29:39;;;;;;;4.15;1.92;;;;;;;9.34;56.34;99678.59;10384731;28;20316;-61
2022/12/28 13:34:49;;;;;;;5.18;2.10;;;;;;;9.20;55.96;99670.75;10381752;28;20413;-61
2022/12/28 13:40:10;;;;;;;4.60;2.10;;;;;;;9.23;55.73;99664.50;10386843;28;20377;-61
2022/12/28 13:45:15;;;;;;;25.08;14.52;;;;;;;9.36;56.14;99655.88;10384753;28;20050;-61
2022/12/28 13:50:23;;;;;;;15.77;8.70;;;;;;;9.37;56.31;99651.50;10387054;28;20175;-61
2022/12/28 13:55:40;;;;;;;20.40;12.25;;;;;;;9.38;56.10;99645.34;10381905;28;20056;-61
2022/12/28 14:00:47;;;;;;;7.10;4.15;;;;;;;9.36;56.38;99640.19;10385594;28;20501;-60
2022/12/28 14:06:00;;;;;;;9.88;4.97;;;;;;;9.35;56.44;99641.16;10382319;28;20080;-61
2022/12/28 14:11:04;;;;;;;18.08;10.25;;;;;;;9.31;56.46;99629.22;10384726;28;20049;-61
2022/12/28 14:16:07;;;;;;;10.48;5.07;;;;;;;9.35;56.78;99620.28;10382871;28;20125;-61
2022/12/28 14:21:08;;;;;;;11.27;5.78;;;;;;;9.16;57.15;99619.66;10385333;28;20053;-61
2022/12/28 14:26:19;;;;;;;7.82;3.00;;;;;;;9.19;57.40;99613.44;10383315;28;20494;-61
2022/12/28 14:31:24;;;;;;;6.78;3.58;;;;;;;9.24;57.48;99608.81;10384718;28;20049;-61
2022/12/28 14:36:40;;;;;;;5.65;3.00;;;;;;;9.19;57.81;99600.41;10381615;28;20066;-58
2022/12/28 14:41:45;;;;;;;5.40;2.85;;;;;;;9.22;57.75;99600.22;10384640;28;20283;-59
2022/12/28 14:46:51;;;;;;;6.28;2.00;;;;;;;9.16;58.02;99590.13;10381286;28;20060;-59
2022/12/28 14:51:54;;;;;;;4.70;1.85;;;;;;;9.03;58.25;99586.56;10383214;28;20120;-60
2022/12/28 14:57:03;;;;;;;4.68;1.73;;;;;;;8.99;58.49;99572.88;10379564;28;20553;-60
2022/12/28 15:02:05;;;;;;;4.50;2.13;;;;;;;8.91;58.73;99567.28;10384735;28;20398;-60
2022/12/28 15:07:29;;;;;;;7.85;2.40;;;;;;;8.99;58.72;99562.44;10381759;28;20457;-61
2022/12/28 15:12:32;;;;;;;5.80;1.98;;;;;;;9.01;58.48;99563.19;10382740;28;20041;-61
2022/12/28 15:17:33;;;;;;;6.43;1.90;;;;;;;8.94;58.51;99553.19;10380879;28;20055;-61
2022/12/28 15:22:35;;;;;;;4.18;2.15;;;;;;;8.95;58.66;99540.09;10383528;28;20416;-61
2022/12/28 15:27:38;;;;;;;5.07;2.17;;;;;;;8.95;58.52;99529.66;10380195;28;20053;-61
2022/12/28 15:32:39;;;;;;;6.00;2.20;;;;;;;8.99;58.64;99525.94;10382160;28;20049;-61
2022/12/28 15:37:41;;;;;;;3.65;2.00;;;;;;;8.91;58.73;99533.38;10380863;28;20053;-60
2022/12/28 15:42:44;;;;;;;8.27;2.85;;;;;;;8.93;58.59;99521.09;10383108;28;20528;-60
2022/12/28 15:47:45;;;;;;;4.82;2.08;;;;;;;8.89;58.74;99514.38;10381044;28;20050;-60
2022/12/28 15:52:48;;;;;;;4.75;2.13;;;;;;;8.85;58.90;99508.47;10382408;28;20313;-61
2022/12/28 15:57:49;;;;;;;6.40;2.22;;;;;;;8.73;59.13;99490.13;10376808;28;20064;-61
2022/12/28 16:02:51;;;;;;;4.95;2.38;;;;;;;8.73;59.42;99490.97;10382022;28;20053;-60
2022/12/28 16:07:53;;;;;;;7.05;2.70;;;;;;;8.65;59.40;99476.69;10377752;28;20046;-61
2022/12/28 16:12:54;;;;;;;6.85;2.80;;;;;;;8.57;59.57;99482.38;10381981;28;20402;-61
2022/12/28 16:17:56;;;;;;;5.45;2.30;;;;;;;8.45;59.73;99477.88;10378631;28;20057;-60
2022/12/28 16:22:58;;;;;;;5.65;2.17;;;;;;;8.44;59.75;99485.78;10381263;28;20057;-61
2022/12/28 16:27:59;;;;;;;4.28;1.80;;;;;;;8.49;59.78;99491.56;10380415;28;20045;-61
2022/12/28 16:33:01;;;;;;;5.13;2.08;;;;;;;8.56;59.79;99495.50;10381277;28;20053;-61
2022/12/28 16:38:03;;;;;;;4.85;2.10;;;;;;;8.61;59.56;99488.22;10377671;28;20050;-61
2022/12/28 16:43:05;;;;;;;5.70;2.00;;;;;;;8.75;59.11;99477.84;10380739;28;20060;-61
2022/12/28 16:48:09;;;;;;;3.80;2.10;;;;;;;8.74;59.14;99474.41;10379932;28;20204;-61
2022/12/28 16:53:10;;;;;;;5.82;1.80;;;;;;;8.71;59.17;99469.34;10384731;28;20433;-61
2022/12/28 16:58:12;;;;;;;4.97;2.40;;;;;;;8.71;59.25;99458.94;10386007;28;20045;-61
2022/12/28 17:03:14;;;;;;;4.43;2.30;;;;;;;8.68;59.70;99446.09;10389320;28;20140;-61
2022/12/28 17:08:16;;;;;;;4.47;2.00;;;;;;;8.64;59.17;99452.41;10386281;28;20756;-61
2022/12/28 17:13:17;;;;;;;3.78;1.70;;;;;;;8.67;59.39;99447.00;10386147;28;20053;-61
2022/12/28 17:18:19;;;;;;;3.60;1.90;;;;;;;8.68;58.95;99442.63;10388099;28;20050;-61
2022/12/28 17:23:22;;;;;;;4.28;1.90;;;;;;;8.80;58.64;99436.69;10385774;28;20057;-61
2022/12/28 17:28:23;;;;;;;4.40;1.95;;;;;;;8.91;58.67;99434.28;10386738;28;20072;-61
2022/12/28 17:33:25;;;;;;;4.63;1.90;;;;;;;8.97;58.23;99418.25;10381313;28;20285;-62
2022/12/28 17:38:27;;;;;;;5.00;2.15;;;;;;;8.97;57.92;99405.22;10383892;28;20429;-61
2022/12/28 17:43:29;;;;;;;7.63;3.30;;;;;;;8.84;58.17;99393.84;10387040;28;20050;-61
2022/12/28 17:48:31;;;;;;;3.95;2.30;;;;;;;8.92;57.89;99389.00;10386220;28;20438;-61
2022/12/28 17:53:33;;;;;;;7.50;3.65;;;;;;;8.89;58.02;99384.00;10385662;28;20430;-61
2022/12/28 17:58:34;;;;;;;5.75;2.30;;;;;;;9.03;57.83;99364.88;10384682;28;20304;-61
2022/12/28 18:03:37;;;;;;;4.63;2.40;;;;;;;9.02;57.68;99365.78;10380756;28;20069;-61
2022/12/28 18:08:38;;;;;;;8.60;4.53;;;;;;;8.90;57.97;99349.16;10382882;28;20392;-61
2022/12/28 18:13:42;;;;;;;7.38;3.95;;;;;;;8.92;57.74;99341.22;10383117;28;20545;-61
2022/12/28 18:18:44;;;;;;;4.90;2.85;;;;;;;8.78;57.92;99349.91;10385231;28;20310;-61
2022/12/28 18:23:50;;;;;;;7.03;4.10;;;;;;;8.71;57.91;99319.91;10380838;28;20486;-61
2022/12/28 18:28:54;;;;;;;5.25;2.63;;;;;;;8.73;58.18;99323.25;10383016;28;20056;-61
2022/12/28 18:33:57;;;;;;;5.70;2.75;;;;;;;8.75;58.01;99316.22;10381628;28;20522;-61
2022/12/28 18:39:00;;;;;;;7.15;2.90;;;;;;;8.75;57.82;99313.59;10385205;28;20104;-62
2022/12/28 18:44:03;;;;;;;6.60;2.40;;;;;;;8.70;58.04;99300.84;10381489;28;20144;-61
2022/12/28 18:49:05;;;;;;;4.57;2.45;;;;;;;8.70;58.06;99302.63;10384347;28;20060;-62
2022/12/28 18:54:07;;;;;;;5.65;3.13;;;;;;;8.67;58.03;99297.56;10382839;28;20045;-62
2022/12/28 18:59:12;;;;;;;5.13;2.72;;;;;;;8.57;58.41;99299.06;10381615;28;20411;-62
2022/12/28 19:04:14;;;;;;;5.20;2.72;;;;;;;8.61;58.39;99290.13;10381224;28;20064;-61
2022/12/28 19:09:17;;;;;;;6.85;2.85;;;;;;;8.68;58.22;99291.44;10381913;28;20562;-62
2022/12/28 19:14:18;;;;;;;10.05;6.88;;;;;;;8.65;58.16;99278.59;10381767;28;20049;-62
2022/12/28 19:19:20;;;;;;;6.22;3.15;;;;;;;8.73;57.92;99278.94;10382536;28;20049;-62
2022/12/28 19:24:22;;;;;;;4.68;3.03;;;;;;;8.72;58.13;99283.34;10375681;28;20060;-62
2022/12/28 19:29:23;;;;;;;4.15;2.10;;;;;;;8.72;58.11;99272.91;10382167;28;20055;-62
2022/12/28 19:34:25;;;;;;;5.07;2.67;;;;;;;8.83;57.97;99267.03;10381709;28;20050;-62
2022/12/28 19:39:26;;;;;;;5.35;2.30;;;;;;;8.89;57.88;99255.38;10383488;28;20049;-62
2022/12/28 19:44:28;;;;;;;4.72;2.10;;;;;;;8.86;57.87;99259.00;10385598;28;20382;-61
2022/12/28 19:49:30;;;;;;;5.00;2.60;;;;;;;8.95;57.57;99250.63;10385224;28;20045;-62
2022/12/28 19:54:31;;;;;;;5.97;2.35;;;;;;;8.76;58.02;99237.91;10382380;28;20045;-62
2022/12/28 19:59:33;;;;;;;4.60;2.30;;;;;;;8.83;57.92;99235.75;10385526;28;20068;-61
2022/12/28 20:04:35;;;;;;;5.82;2.20;;;;;;;8.80;58.28;99230.72;10381021;28;20059;-62
2022/12/28 20:09:37;;;;;;;4.32;2.30;;;;;;;8.78;58.45;99212.56;10372340;28;20549;-62
2022/12/28 20:14:39;;;;;;;4.28;2.10;;;;;;;8.85;58.54;99219.06;10379520;28;20048;-61
2022/12/28 20:19:41;;;;;;;7.63;2.05;;;;;;;8.96;58.40;99210.53;10373521;28;20045;-61
2022/12/28 20:24:42;;;;;;;5.05;2.20;;;;;;;9.01;58.21;99192.84;10381117;28;20053;-61
2022/12/28 20:29:46;;;;;;;5.38;2.30;;;;;;;9.04;58.10;99186.56;10377916;28;20045;-61
2022/12/28 20:34:48;;;;;;;8.02;2.17;;;;;;;9.03;57.98;99183.16;10380535;28;20473;-62
2022/12/28 20:39:50;;;;;;;3.60;2.20;;;;;;;9.09;58.25;99182.75;10363301;28;20046;-62
2022/12/28 20:44:51;;;;;;;4.80;2.45;;;;;;;9.12;58.63;99179.91;10383659;28;20386;-62
2022/12/28 20:49:53;;;;;;;3.95;2.00;;;;;;;9.12;58.75;99174.69;10380484;28;20053;-61
2022/12/28 20:54:55;;;;;;;4.35;2.45;;;;;;;9.20;58.90;99156.75;10382833;28;20045;-62
2022/12/28 20:59:58;;;;;;;15.63;8.52;;;;;;;9.14;59.13;99159.78;10377671;28;20049;-62
2022/12/28 21:04:59;;;;;;;6.32;3.70;;;;;;;9.15;59.31;99148.44;10379840;28;20057;-62
2022/12/28 21:10:01;;;;;;;4.70;2.58;;;;;;;9.19;59.33;99136.84;10371080;28;20057;-61
2022/12/28 21:15:03;;;;;;;4.32;2.20;;;;;;;9.29;59.37;99127.47;10380344;28;20054;-61
2022/12/28 21:20:05;;;;;;;4.88;2.30;;;;;;;9.31;59.30;99115.16;10375188;28;20498;-61
2022/12/28 21:25:07;;;;;;;5.65;2.40;;;;;;;9.29;59.61;99111.81;10379757;28;20322;-61
2022/12/28 21:30:09;;;;;;;4.57;2.30;;;;;;;9.32;59.58;99105.56;10377917;28;20041;-61
2022/12/28 21:35:11;;;;;;;5.07;2.28;;;;;;;9.34;59.74;99096.66;10381417;28;20045;-61
2022/12/28 21:40:13;;;;;;;4.18;2.08;;;;;;;9.32;59.68;99074.25;10381992;28;20068;-61
2022/12/28 21:45:15;;;;;;;4.68;1.92;;;;;;;9.32;60.01;99089.91;10382937;28;20247;-60
2022/12/28 21:50:17;;;;;;;4.53;2.03;;;;;;;9.31;60.17;99088.22;10384329;28;20052;-61
2022/12/28 22:06:03;;;;;;;4.22;1.98;;;;;;;9.44;60.41;99078.63;10388433;28;20053;-61
2022/12/28 22:16:25;;;;;;;5.63;2.10;;;;;;;9.52;60.46;99073.72;10387571;28;20045;-61
2022/12/28 22:21:27;;;;;;;3.83;2.42;;;;;;;9.52;60.44;99076.31;10386539;28;20052;-60
2022/12/28 22:26:29;;;;;;;6.30;3.15;;;;;;;9.56;60.61;99072.56;10386278;28;20049;-60
2022/12/28 22:31:31;;;;;;;4.68;2.80;;;;;;;9.56;60.78;99067.34;10387009;28;20057;-60
2022/12/28 22:36:33;;;;;;;5.22;2.30;;;;;;;9.51;61.26;99061.59;10384695;28;20046;-60
2022/12/28 22:41:35;;;;;;;5.20;2.42;;;;;;;9.53;61.37;99065.78;10385233;28;20501;-61
2022/12/28 22:46:37;;;;;;;5.65;2.50;;;;;;;9.70;61.26;99069.03;10385953;28;20041;-60
2022/12/28 22:51:39;;;;;;;4.70;2.20;;;;;;;9.72;61.05;99057.53;10385732;28;20053;-60
2022/12/28 22:56:41;;;;;;;5.13;2.10;;;;;;;9.78;61.01;99048.44;10384740;28;20859;-60
2022/12/28 23:01:43;;;;;;;4.65;2.13;;;;;;;9.84;61.12;99040.16;10383820;28;20061;-60
2022/12/28 23:06:45;;;;;;;4.60;2.13;;;;;;;9.85;60.97;99026.19;10384291;28;20053;-60
2022/12/28 23:11:49;;;;;;;3.65;1.92;;;;;;;9.83;61.23;99026.25;10383416;28;20124;-60
2022/12/28 23:16:51;;;;;;;5.35;2.05;;;;;;;9.86;61.11;99017.38;10384141;28;20042;-60
2022/12/28 23:27:19;;;;;;;4.15;2.10;;;;;;;10.03;60.58;99022.25;10383431;28;20087;-60
2022/12/28 23:32:21;;;;;;;3.70;1.90;;;;;;;10.06;60.44;99012.41;10383485;28;20188;-60
2022/12/28 23:37:23;;;;;;;4.93;1.88;;;;;;;10.13;60.45;99026.72;10383945;28;20055;-60
2022/12/28 23:42:24;;;;;;;3.47;1.70;;;;;;;10.21;60.25;99024.38;10384190;28;20057;-60
2022/12/28 23:47:26;;;;;;;3.03;1.98;;;;;;;10.31;60.22;99024.53;10383109;28;20520;-60
2022/12/28 23:52:28;;;;;;;6.38;2.35;;;;;;;10.33;60.03;99020.03;10383252;28;20041;-60
2022/12/28 23:57:29;;;;;;;4.15;1.80;;;;;;;10.35;60.27;99023.34;10383961;28;20528;-60
